Time;durP1;ratioP1;P1;durP2;ratioP2;P2;SDS_P1;SDS_P2;PMS_P1;PMS_P2;Temp;Humidity;BMP_temperature;BMP_pressure;BME280_temperature;BME280_humidity;BME280_pressure;Samples;Min_cycle;Max_cycle;Signal;HPM_P1;HPM_P2
2021/11/23 00:01:58;;;;;;;8.03;3.00;;;;;;;2.57;63.30;99914.19;1756245;79;22081;-54
2021/11/23 00:04:25;;;;;;;6.93;2.00;;;;;;;2.52;63.25;99906.73;1740940;79;21369;-54
2021/11/23 00:06:52;;;;;;;4.53;1.47;;;;;;;2.52;63.38;99906.73;1738093;79;21508;-53
2021/11/23 00:09:20;;;;;;;9.17;2.50;;;;;;;2.51;63.45;99914.28;1730202;80;20975;-53
2021/11/23 00:11:47;;;;;;;4.50;1.60;;;;;;;2.49;63.54;99902.78;1761697;79;21512;-54
2021/11/23 00:14:13;;;;;;;2.80;1.07;;;;;;;2.48;63.57;99905.89;1741437;79;21121;-54
2021/11/23 00:16:39;;;;;;;3.83;1.10;;;;;;;2.49;63.50;99911.63;1736951;79;21044;-53
2021/11/23 00:19:06;;;;;;;2.20;1.10;;;;;;;2.50;63.39;99915.17;1756658;79;21096;-53
2021/11/23 00:21:33;;;;;;;3.93;1.20;;;;;;;2.48;63.25;99917.84;1705567;81;21108;-53
2021/11/23 00:23:59;;;;;;;6.50;2.13;;;;;;;2.45;63.33;99919.68;1742381;79;21072;-53
2021/11/23 00:26:26;;;;;;;8.97;4.07;;;;;;;2.44;63.33;99921.45;1742578;79;22384;-53
2021/11/23 00:28:52;;;;;;;4.23;1.40;;;;;;;2.44;63.44;99920.58;1757492;79;20933;-53
2021/11/23 00:31:19;;;;;;;2.57;1.00;;;;;;;2.44;63.40;99921.45;1742889;79;21752;-53
2021/11/23 00:33:45;;;;;;;3.77;1.10;;;;;;;2.42;63.35;99920.59;1766139;79;20989;-53
2021/11/23 00:36:12;;;;;;;3.53;0.90;;;;;;;2.41;63.38;99916.17;1716594;81;20965;-53
2021/11/23 00:38:42;;;;;;;2.33;0.83;;;;;;;2.41;63.56;99913.95;1757966;79;21133;-53
2021/11/23 00:41:09;;;;;;;1.97;1.03;;;;;;;2.38;63.41;99919.33;1738325;79;21045;-54
2021/11/23 00:43:36;;;;;;;3.43;0.83;;;;;;;2.33;63.42;99910.52;1769801;78;21373;-54
2021/11/23 00:46:02;;;;;;;2.33;0.90;;;;;;;2.28;63.39;99920.77;1778388;78;21545;-54
2021/11/23 00:48:29;;;;;;;2.73;0.80;;;;;;;2.26;63.45;99923.00;1772072;78;21052;-54
2021/11/23 00:50:57;;;;;;;2.07;0.93;;;;;;;2.23;63.56;99921.25;1772314;78;21134;-53
2021/11/23 00:53:25;;;;;;;2.47;1.10;;;;;;;2.21;63.68;99919.54;1769408;78;21056;-53
2021/11/23 00:55:51;;;;;;;3.23;0.90;;;;;;;2.23;63.66;99921.25;1774019;78;21138;-53
2021/11/23 00:58:20;;;;;;;2.20;0.97;;;;;;;2.22;63.57;99931.89;1780054;78;21068;-53
2021/11/23 01:00:47;;;;;;;2.63;1.10;;;;;;;2.19;63.55;99934.16;1767001;78;21131;-53
2021/11/23 01:03:14;;;;;;;2.73;1.10;;;;;;;2.18;63.55;99939.03;1776304;78;20901;-53
2021/11/23 01:05:40;;;;;;;3.40;1.10;;;;;;;2.16;63.53;99939.94;1774846;78;21411;-53
2021/11/23 01:08:07;;;;;;;2.17;1.00;;;;;;;2.13;63.46;99935.53;1776106;78;20885;-54
2021/11/23 01:10:34;;;;;;;3.07;1.10;;;;;;;2.09;63.44;99940.47;1776149;78;20913;-53
2021/11/23 01:13:00;;;;;;;3.00;1.00;;;;;;;2.06;63.60;99943.14;1778325;78;20940;-54
2021/11/23 01:15:28;;;;;;;3.63;1.00;;;;;;;2.07;63.57;99944.91;1778351;77;20899;-54
2021/11/23 01:17:57;;;;;;;2.97;1.10;;;;;;;2.09;63.56;99948.43;1779451;78;20921;-54
2021/11/23 01:20:25;;;;;;;4.13;1.30;;;;;;;2.10;63.57;99944.88;1776070;78;20972;-54
2021/11/23 01:22:53;;;;;;;4.53;1.17;;;;;;;2.09;63.61;99947.55;1776764;78;21352;-54
2021/11/23 01:25:20;;;;;;;6.20;1.10;;;;;;;2.11;63.61;99952.41;1772697;78;21497;-54
2021/11/23 01:27:46;;;;;;;3.10;0.90;;;;;;;2.11;63.56;99953.28;1774053;78;21088;-54
2021/11/23 01:30:13;;;;;;;4.60;1.20;;;;;;;2.10;63.47;99961.27;1774076;77;21115;-54
2021/11/23 01:32:40;;;;;;;6.87;1.30;;;;;;;2.08;63.49;99963.05;1773572;78;21107;-54
2021/11/23 01:35:08;;;;;;;2.00;1.00;;;;;;;2.07;63.48;99961.28;1769625;78;21057;-53
2021/11/23 01:37:36;;;;;;;3.17;1.20;;;;;;;2.07;63.40;99959.95;1778767;78;20909;-53
2021/11/23 01:40:05;;;;;;;1.93;0.90;;;;;;;2.08;63.20;99965.70;1772234;78;21075;-53
2021/11/23 01:42:33;;;;;;;6.23;1.00;;;;;;;2.10;63.03;99966.57;1778442;78;20880;-54
2021/11/23 01:45:00;;;;;;;1.73;1.20;;;;;;;2.09;63.04;99957.72;1788885;79;20906;-53
2021/11/23 01:47:27;;;;;;;2.93;0.87;;;;;;;2.07;62.78;99962.61;1786449;79;21006;-53
2021/11/23 01:49:53;;;;;;;3.67;0.83;;;;;;;2.03;62.70;99961.78;1788813;79;21017;-53
2021/11/23 01:52:20;;;;;;;2.43;0.70;;;;;;;1.98;62.68;99959.60;1783277;79;21452;-53
2021/11/23 01:54:47;;;;;;;2.00;0.70;;;;;;;1.94;62.42;99957.89;1785143;79;20880;-53
2021/11/23 01:57:13;;;;;;;6.07;2.40;;;;;;;1.86;62.29;99963.28;1787623;79;21587;-53
2021/11/23 01:59:40;;;;;;;7.70;0.90;;;;;;;1.79;62.35;99964.66;1789475;79;21345;-54
2021/11/23 02:02:07;;;;;;;4.17;0.87;;;;;;;1.75;62.50;99962.49;1788680;79;21412;-53
2021/11/23 02:04:33;;;;;;;1.37;0.70;;;;;;;1.74;62.59;99970.47;1790265;79;21835;-54
2021/11/23 02:07:00;;;;;;;2.73;0.90;;;;;;;1.73;62.72;99967.38;1788958;79;21053;-54
2021/11/23 02:09:26;;;;;;;1.23;0.80;;;;;;;1.70;62.86;99964.77;1788565;79;21033;-54
2021/11/23 02:11:54;;;;;;;2.10;1.00;;;;;;;1.69;62.92;99965.66;1784833;79;21228;-53
2021/11/23 02:14:22;;;;;;;2.40;0.80;;;;;;;1.68;63.06;99961.24;1788144;79;20966;-54
2021/11/23 02:16:49;;;;;;;3.63;0.83;;;;;;;1.66;62.81;99961.70;1784210;79;21135;-54
2021/11/23 02:19:16;;;;;;;3.10;0.90;;;;;;;1.64;62.82;99960.82;1788712;79;20882;-54
2021/11/23 02:21:43;;;;;;;3.10;0.80;;;;;;;1.61;62.56;99963.08;1788308;79;20950;-53
2021/11/23 02:24:09;;;;;;;1.33;0.77;;;;;;;1.58;62.43;99968.84;1786886;79;21025;-53
2021/11/23 02:26:35;;;;;;;2.20;0.90;;;;;;;1.53;62.43;99963.59;1787221;79;21041;-54
2021/11/23 02:29:02;;;;;;;1.63;0.80;;;;;;;1.51;62.34;99970.67;1789577;79;21817;-54
2021/11/23 02:31:29;;;;;;;3.20;1.00;;;;;;;1.51;62.42;99960.95;1790071;79;21598;-54
2021/11/23 02:33:55;;;;;;;2.20;0.80;;;;;;;1.50;62.38;99964.48;1787580;79;20919;-54
2021/11/23 02:36:22;;;;;;;2.43;0.80;;;;;;;1.50;62.32;99964.48;1785170;79;21115;-53
2021/11/23 02:38:49;;;;;;;3.60;0.87;;;;;;;1.50;62.51;99975.55;1788118;79;21053;-53
2021/11/23 02:41:16;;;;;;;3.53;0.77;;;;;;;1.51;62.52;99980.84;1785141;79;21216;-53
2021/11/23 02:43:43;;;;;;;3.07;0.90;;;;;;;1.51;62.51;99982.61;1783496;79;21064;-54
2021/11/23 02:46:10;;;;;;;3.10;0.87;;;;;;;1.50;62.59;99968.47;1787788;79;21072;-54
2021/11/23 02:48:37;;;;;;;3.07;0.87;;;;;;;1.50;62.59;99972.45;1784505;79;22368;-54
2021/11/23 02:53:37;;;;;;;2.47;0.80;;;;;;;1.52;62.89;99979.07;1789976;79;21431;-55
2021/11/23 02:56:04;;;;;;;1.97;1.00;;;;;;;1.51;62.90;99974.66;1783714;79;21700;-55
2021/11/23 03:01:09;;;;;;;2.43;0.90;;;;;;;1.49;62.96;99977.77;1833083;75;26540;-54
2021/11/23 03:03:36;;;;;;;3.03;1.10;;;;;;;1.42;62.99;99985.34;1804283;77;21482;-54
2021/11/23 03:06:03;;;;;;;3.17;0.87;;;;;;;1.35;63.06;99983.63;1806158;77;21157;-54
2021/11/23 03:08:29;;;;;;;1.70;0.80;;;;;;;1.28;63.11;99984.09;1808719;77;20981;-54
2021/11/23 03:10:56;;;;;;;1.93;0.83;;;;;;;1.18;63.26;99983.75;1808880;77;21040;-54
2021/11/23 03:13:23;;;;;;;2.50;1.00;;;;;;;1.10;63.43;99984.25;1812733;77;21013;-55
2021/11/23 03:15:50;;;;;;;1.57;1.13;;;;;;;1.04;63.61;99990.45;1812943;77;21074;-55
2021/11/23 03:18:17;;;;;;;3.30;1.10;;;;;;;0.99;63.78;99990.94;1808273;77;21469;-55
2021/11/23 03:20:45;;;;;;;2.63;0.90;;;;;;;0.96;64.04;99989.61;1808357;77;21484;-55
2021/11/23 03:23:11;;;;;;;2.80;1.23;;;;;;;0.93;64.18;99993.63;1810698;77;21484;-55
2021/11/23 03:25:38;;;;;;;4.00;1.40;;;;;;;0.93;64.32;99991.42;1808212;77;21700;-55
2021/11/23 03:28:05;;;;;;;4.23;1.23;;;;;;;0.91;64.45;99995.84;1809086;77;21040;-55
2021/11/23 03:30:32;;;;;;;4.93;1.07;;;;;;;0.88;64.49;100002.47;1786612;77;21159;-55
2021/11/23 03:33:00;;;;;;;4.20;1.10;;;;;;;0.82;64.65;100002.52;1823839;76;20914;-55
2021/11/23 03:35:29;;;;;;;4.20;1.03;;;;;;;0.74;64.64;100002.11;1827367;76;21020;-55
2021/11/23 03:37:57;;;;;;;3.17;0.90;;;;;;;0.66;64.81;99997.73;1820813;76;21506;-55
2021/11/23 03:40:25;;;;;;;3.50;0.97;;;;;;;0.59;65.06;99999.98;1821463;76;21023;-56
2021/11/23 03:42:52;;;;;;;2.63;1.00;;;;;;;0.55;65.22;99997.77;1822789;76;21128;-55
2021/11/23 03:45:19;;;;;;;2.47;0.97;;;;;;;0.51;65.40;99997.81;1823965;76;21058;-55
2021/11/23 03:47:46;;;;;;;1.87;1.17;;;;;;;0.47;65.53;100002.66;1822996;76;21079;-56
2021/11/23 03:50:14;;;;;;;5.33;0.90;;;;;;;0.43;65.66;100008.41;1826912;76;21076;-56
2021/11/23 03:52:41;;;;;;;1.60;0.80;;;;;;;0.38;65.82;100009.75;1828298;76;20851;-56
2021/11/23 03:55:10;;;;;;;2.20;0.80;;;;;;;0.36;65.92;100008.87;1827919;76;21126;-56
2021/11/23 03:57:37;;;;;;;2.60;0.90;;;;;;;0.34;66.08;100006.66;1829179;76;20902;-56
2021/11/23 04:00:07;;;;;;;4.60;1.20;;;;;;;0.33;66.22;100001.40;1828889;77;21017;-56
2021/11/23 04:02:36;;;;;;;2.70;0.90;;;;;;;0.32;66.33;99996.98;1828482;76;21905;-56
2021/11/23 04:05:03;;;;;;;3.20;0.90;;;;;;;0.30;66.39;99996.98;1828077;76;21784;-56
2021/11/23 04:07:31;;;;;;;4.17;1.03;;;;;;;0.28;66.54;99994.77;1825216;76;21376;-56
2021/11/23 04:09:57;;;;;;;5.43;1.20;;;;;;;0.28;66.70;99997.42;1827301;76;20871;-56
2021/11/23 04:12:25;;;;;;;5.17;1.17;;;;;;;0.29;66.80;99992.57;1828154;76;20887;-56
2021/11/23 04:14:52;;;;;;;3.10;1.00;;;;;;;0.31;66.81;99992.13;1826702;76;20932;-56
2021/11/23 04:17:18;;;;;;;10.30;3.53;;;;;;;0.31;66.92;99994.78;1831157;76;20906;-56
2021/11/23 04:19:45;;;;;;;8.87;3.53;;;;;;;0.32;67.03;99989.05;1827208;76;21803;-56
2021/11/23 04:22:11;;;;;;;8.00;2.70;;;;;;;0.33;67.19;99989.05;1826395;76;21787;-56
2021/11/23 04:24:38;;;;;;;7.57;2.53;;;;;;;0.35;67.30;99987.69;1828267;76;20855;-56
2021/11/23 04:27:05;;;;;;;9.53;3.43;;;;;;;0.37;67.44;99987.24;1827003;76;20866;-56
2021/11/23 04:29:31;;;;;;;7.73;2.90;;;;;;;0.40;67.54;99978.42;1827236;76;20896;-56
2021/11/23 04:31:58;;;;;;;5.30;2.77;;;;;;;0.42;67.50;99983.27;1827044;76;21025;-57
2021/11/23 04:34:24;;;;;;;9.00;4.23;;;;;;;0.40;67.65;99977.98;1828449;76;20942;-56
2021/11/23 04:36:51;;;;;;;9.27;2.60;;;;;;;0.42;67.74;99976.66;1827227;76;20887;-57
2021/11/23 04:39:17;;;;;;;6.33;2.43;;;;;;;0.42;67.77;99980.19;1826022;77;20996;-57
2021/11/23 04:41:44;;;;;;;5.77;2.07;;;;;;;0.40;67.79;99981.95;1825094;76;21037;-56
2021/11/23 04:44:11;;;;;;;8.27;2.53;;;;;;;0.37;67.93;99982.83;1824975;76;21813;-57
2021/11/23 04:46:37;;;;;;;7.03;2.40;;;;;;;0.36;68.07;99976.22;1824582;76;21231;-57
2021/11/23 04:49:05;;;;;;;11.67;4.20;;;;;;;0.36;68.15;99967.83;1827530;76;21514;-57
2021/11/23 04:51:33;;;;;;;39.13;19.17;;;;;;;0.38;68.24;99963.41;1828316;76;20874;-57
2021/11/23 04:53:59;;;;;;;21.40;10.03;;;;;;;0.42;68.32;99959.00;1820127;76;21438;-57
2021/11/23 04:56:25;;;;;;;43.47;21.03;;;;;;;0.47;68.41;99951.91;1821667;76;21769;-57
2021/11/23 04:58:52;;;;;;;15.83;4.53;;;;;;;0.49;68.37;99948.81;1827145;76;21084;-57
2021/11/23 05:01:19;;;;;;;5.43;2.40;;;;;;;0.52;68.40;99946.13;1823319;76;21046;-57
2021/11/23 05:03:46;;;;;;;7.03;3.13;;;;;;;0.54;68.46;99941.70;1822664;76;21079;-58
2021/11/23 05:06:12;;;;;;;9.90;5.27;;;;;;;0.56;68.54;99943.91;1826194;76;21039;-58
2021/11/23 05:08:40;;;;;;;11.17;6.00;;;;;;;0.57;68.52;99939.06;1823014;76;20981;-57
2021/11/23 05:11:09;;;;;;;9.90;4.37;;;;;;;0.60;68.53;99939.46;1822255;76;21394;-57
2021/11/23 05:13:36;;;;;;;5.23;2.53;;;;;;;0.60;68.39;99935.48;1823125;76;21264;-57
2021/11/23 05:16:05;;;;;;;19.27;10.80;;;;;;;0.59;68.35;99933.31;1822314;76;21060;-58
2021/11/23 05:18:32;;;;;;;31.47;21.33;;;;;;;0.60;68.25;99936.37;1824485;76;21103;-57
2021/11/23 05:20:59;;;;;;;26.17;15.93;;;;;;;0.58;68.22;99942.14;1822253;76;21153;-58
2021/11/23 05:23:26;;;;;;;18.67;11.30;;;;;;;0.57;68.20;99937.73;1821492;76;21030;-58
2021/11/23 05:25:54;;;;;;;11.80;6.87;;;;;;;0.55;68.26;99938.62;1823214;76;21037;-58
2021/11/23 05:28:22;;;;;;;15.33;6.60;;;;;;;0.53;68.24;99945.24;1824893;76;21235;-57
2021/11/23 05:30:51;;;;;;;8.03;5.23;;;;;;;0.52;68.30;99954.07;1824105;77;21511;-58
2021/11/23 05:33:18;;;;;;;8.03;4.27;;;;;;;0.47;68.24;99945.28;1821765;77;22861;-58
2021/11/23 05:35:49;;;;;;;11.13;5.30;;;;;;;0.39;68.38;99952.38;1822012;77;21107;-58
2021/11/23 05:38:13;;;;;;;6.13;3.77;;;;;;;0.35;68.34;99959.88;1823690;77;22349;-58
2021/11/23 05:40:41;;;;;;;5.90;2.27;;;;;;;0.25;68.24;99963.04;1823187;77;21060;-58
2021/11/23 05:43:07;;;;;;;8.67;2.47;;;;;;;0.14;68.55;99971.45;1825749;76;21044;-58
2021/11/23 05:45:34;;;;;;;10.10;2.60;;;;;;;0.08;68.66;99978.53;1761920;79;21092;-58
2021/11/23 05:48:00;;;;;;;6.97;1.97;;;;;;;0.02;68.77;99984.70;1753364;79;21076;-58
2021/11/23 05:50:27;;;;;;;3.97;1.90;;;;;;;-0.03;68.86;99984.72;1754549;79;21315;-58
2021/11/23 05:52:53;;;;;;;6.17;1.93;;;;;;;-0.05;68.83;99990.45;1754943;79;21782;-58
2021/11/23 05:55:20;;;;;;;9.13;3.43;;;;;;;-0.08;68.83;99993.53;1757767;79;21421;-58
2021/11/23 05:57:46;;;;;;;4.67;1.87;;;;;;;-0.11;68.85;100000.17;1757130;80;21172;-58
2021/11/23 06:00:13;;;;;;;4.00;1.90;;;;;;;-0.13;68.99;100006.78;1754869;79;21185;-58
2021/11/23 06:02:39;;;;;;;4.50;2.47;;;;;;;-0.17;69.01;100017.39;1753778;79;21062;-58
2021/11/23 06:05:07;;;;;;;5.33;2.40;;;;;;;-0.17;69.13;100027.50;1757136;80;21177;-58
2021/11/23 06:07:34;;;;;;;10.43;4.27;;;;;;;-0.17;69.22;100026.17;1759439;80;20982;-58
2021/11/23 06:10:00;;;;;;;6.07;2.93;;;;;;;-0.15;69.38;100032.80;1756348;80;21501;-58
2021/11/23 06:12:30;;;;;;;10.27;4.50;;;;;;;-0.13;69.54;100043.83;1757760;79;21540;-58
2021/11/23 06:14:56;;;;;;;13.60;6.13;;;;;;;-0.10;69.59;100042.52;1753994;80;21090;-58
2021/11/23 06:17:22;;;;;;;12.30;6.10;;;;;;;-0.08;69.61;100043.80;1755492;80;21078;-58
2021/11/23 06:19:50;;;;;;;16.87;8.40;;;;;;;-0.07;69.63;100038.95;1754838;80;21297;-58
2021/11/23 06:22:16;;;;;;;17.93;8.67;;;;;;;-0.07;69.67;100041.16;1754289;79;22102;-58
2021/11/23 06:24:42;;;;;;;21.47;8.97;;;;;;;-0.05;69.70;100049.99;1753519;80;21078;-58
2021/11/23 06:27:09;;;;;;;24.07;10.30;;;;;;;-0.02;69.73;100056.61;1754254;80;21696;-58
2021/11/23 06:29:35;;;;;;;18.63;10.13;;;;;;;0.03;69.67;100057.92;1750652;80;21546;-58
2021/11/23 06:32:02;;;;;;;19.73;10.47;;;;;;;0.05;69.64;100055.28;1752102;79;21137;-58
2021/11/23 06:34:29;;;;;;;22.43;11.30;;;;;;;0.08;69.69;100048.67;1750367;80;22198;-58
2021/11/23 06:36:57;;;;;;;24.23;11.40;;;;;;;0.11;69.69;100052.17;1749201;80;21686;-58
2021/11/23 06:39:24;;;;;;;22.83;11.10;;;;;;;0.14;69.72;100053.50;1753799;80;21125;-57
2021/11/23 06:41:50;;;;;;;20.60;11.40;;;;;;;0.18;69.73;100058.33;1751970;80;21090;-58
2021/11/23 06:44:17;;;;;;;24.00;12.03;;;;;;;0.23;69.69;100061.88;1753576;80;21134;-57
2021/11/23 06:46:43;;;;;;;26.40;13.50;;;;;;;0.26;69.56;100065.38;1752310;80;21086;-57
2021/11/23 06:49:10;;;;;;;27.50;12.53;;;;;;;0.27;69.47;100065.81;1753368;80;21184;-57
2021/11/23 06:51:36;;;;;;;25.83;11.17;;;;;;;0.27;69.46;100061.84;1755121;80;21090;-57
2021/11/23 06:54:04;;;;;;;23.73;12.27;;;;;;;0.27;69.38;100063.61;1752892;79;21066;-58
2021/11/23 06:56:31;;;;;;;23.60;12.20;;;;;;;0.27;69.45;100063.17;1759613;79;20872;-57
2021/11/23 06:58:57;;;;;;;26.83;13.23;;;;;;;0.30;69.47;100076.42;1757071;80;22214;-57
2021/11/23 07:01:24;;;;;;;27.07;13.50;;;;;;;0.33;69.49;100075.09;1759488;80;20935;-57
2021/11/23 07:03:50;;;;;;;28.13;12.63;;;;;;;0.38;69.47;100073.31;1759726;80;21458;-57
2021/11/23 07:06:17;;;;;;;25.33;12.60;;;;;;;0.42;69.46;100071.55;1764311;80;22108;-57
2021/11/23 07:08:43;;;;;;;21.80;12.40;;;;;;;0.48;69.43;100072.84;1757154;79;20963;-57
2021/11/23 07:11:11;;;;;;;21.67;10.73;;;;;;;0.52;69.43;100074.59;1753640;80;21092;-56
2021/11/23 07:13:38;;;;;;;18.53;8.87;;;;;;;0.59;69.42;100072.83;1758357;80;20928;-56
2021/11/23 07:16:05;;;;;;;18.00;9.23;;;;;;;0.66;69.30;100066.62;1758974;80;20968;-57
2021/11/23 07:18:32;;;;;;;19.13;8.57;;;;;;;0.72;69.22;100060.84;1758342;80;20880;-56
2021/11/23 07:20:58;;;;;;;15.63;8.30;;;;;;;0.79;69.16;100052.86;1757006;80;21036;-57
2021/11/23 07:23:26;;;;;;;15.67;7.53;;;;;;;0.85;69.09;100054.19;1756638;80;21101;-56
2021/11/23 07:25:52;;;;;;;14.70;6.67;;;;;;;0.91;68.98;100059.45;1754396;80;20963;-57
2021/11/23 07:28:19;;;;;;;13.03;6.83;;;;;;;0.97;68.80;100065.59;1757144;80;20999;-56
2021/11/23 07:30:46;;;;;;;17.73;5.13;;;;;;;1.02;68.73;100070.42;1757444;80;21017;-56
2021/11/23 07:33:13;;;;;;;8.70;4.57;;;;;;;1.09;68.61;100073.95;1756338;80;20939;-57
2021/11/23 07:35:39;;;;;;;11.83;4.60;;;;;;;1.15;68.37;100067.28;1755954;79;21816;-56
2021/11/23 07:38:05;;;;;;;10.03;3.93;;;;;;;1.22;68.12;100066.79;1753954;79;22173;-56
2021/11/23 07:40:32;;;;;;;6.90;3.43;;;;;;;1.27;67.89;100067.66;1753819;80;21082;-54
2021/11/23 07:42:59;;;;;;;7.80;3.20;;;;;;;1.32;67.82;100069.39;1764133;80;20908;-56
2021/11/23 07:45:26;;;;;;;6.77;3.03;;;;;;;1.40;67.56;100074.20;1756412;80;20975;-56
2021/11/23 07:47:53;;;;;;;8.40;2.93;;;;;;;1.47;67.33;100071.05;1760153;80;21139;-56
2021/11/23 07:50:19;;;;;;;8.97;3.67;;;;;;;1.55;67.02;100073.66;1756959;80;21037;-56
2021/11/23 07:52:46;;;;;;;5.53;2.63;;;;;;;1.60;66.84;100068.77;1752782;80;21129;-56
2021/11/23 07:55:13;;;;;;;7.90;2.90;;;;;;;1.67;66.71;100070.48;1757704;79;21002;-56
2021/11/23 07:57:39;;;;;;;5.07;1.40;;;;;;;1.73;66.30;100069.55;1757137;79;20932;-56
2021/11/23 08:00:07;;;;;;;4.07;1.73;;;;;;;1.78;66.11;100077.93;1758972;79;22549;-56
2021/11/23 08:02:35;;;;;;;5.30;1.73;;;;;;;1.81;65.78;100075.67;1757123;79;21544;-56
2021/11/23 08:05:04;;;;;;;3.30;1.70;;;;;;;1.86;65.66;100071.23;1787437;77;21398;-56
2021/11/23 08:07:31;;;;;;;5.43;2.27;;;;;;;1.93;65.60;100079.58;1761074;79;21003;-56
2021/11/23 08:09:58;;;;;;;6.10;2.17;;;;;;;2.02;65.44;100073.30;1759849;79;21098;-56
2021/11/23 08:12:24;;;;;;;4.03;2.40;;;;;;;2.09;65.32;100075.01;1758698;79;21533;-56
2021/11/23 08:14:51;;;;;;;7.37;1.60;;;;;;;2.17;65.17;100066.52;1757286;80;21481;-56
2021/11/23 08:17:18;;;;;;;6.30;2.33;;;;;;;2.23;64.90;100056.71;1757962;79;21058;-56
2021/11/23 08:19:44;;;;;;;3.10;1.33;;;;;;;2.30;64.85;100046.90;1755616;79;21042;-56
2021/11/23 08:22:11;;;;;;;2.77;1.17;;;;;;;2.40;64.65;100053.00;1759127;79;21101;-56
2021/11/23 08:24:37;;;;;;;5.13;1.20;;;;;;;2.48;64.30;100053.80;1756346;79;23004;-55
2021/11/23 08:27:04;;;;;;;3.73;1.40;;;;;;;2.55;64.18;100050.20;1756689;79;21058;-55
2021/11/23 08:29:31;;;;;;;3.67;1.23;;;;;;;2.62;63.74;100043.91;1756358;79;22432;-55
2021/11/23 08:31:58;;;;;;;4.53;1.67;;;;;;;2.70;63.64;100039.39;1754459;79;21588;-55
2021/11/23 08:34:24;;;;;;;4.07;1.73;;;;;;;2.79;63.36;100035.73;1758511;79;21098;-54
2021/11/23 08:36:50;;;;;;;4.17;0.90;;;;;;;2.84;63.21;100041.87;1759247;79;21177;-54
2021/11/23 08:39:18;;;;;;;3.97;1.10;;;;;;;2.88;62.95;100043.16;1754837;79;21047;-54
2021/11/23 08:41:44;;;;;;;1.93;1.10;;;;;;;2.90;62.62;100049.76;1757346;79;21153;-54
2021/11/23 08:44:11;;;;;;;2.60;0.80;;;;;;;2.89;62.36;100043.55;1758996;79;21402;-54
2021/11/23 08:46:39;;;;;;;2.13;0.80;;;;;;;2.88;62.12;100050.25;1756450;79;20921;-54
2021/11/23 08:49:05;;;;;;;1.83;0.90;;;;;;;2.84;61.97;100045.41;1759775;79;21631;-54
2021/11/23 08:51:35;;;;;;;1.57;0.77;;;;;;;2.77;61.70;100037.08;1756599;79;21058;-54
2021/11/23 08:54:00;;;;;;;1.77;0.80;;;;;;;2.73;61.70;100038.00;1762048;79;21615;-54
2021/11/23 08:56:32;;;;;;;1.53;0.80;;;;;;;2.70;61.57;100035.40;1755778;80;21596;-54
2021/11/23 08:58:57;;;;;;;3.50;0.80;;;;;;;2.69;61.42;100034.97;1758079;79;21126;-54
2021/11/23 09:01:26;;;;;;;2.93;0.90;;;;;;;2.65;61.37;100034.11;1762887;79;21131;-54
2021/11/23 09:03:55;;;;;;;2.23;0.83;;;;;;;2.62;61.39;100033.28;1759347;79;22022;-54
2021/11/23 09:06:24;;;;;;;2.07;0.80;;;;;;;2.62;61.62;100034.17;1755113;79;21067;-54
2021/11/23 09:08:58;;;;;;;3.00;1.20;;;;;;;2.63;61.61;100041.25;1755398;79;21097;-54
2021/11/23 09:11:26;;;;;;;2.53;1.00;;;;;;;2.65;61.82;100034.56;1754953;79;21466;-55
2021/11/23 09:13:55;;;;;;;2.43;1.00;;;;;;;2.65;61.87;100024.80;1760351;79;22242;-55
2021/11/23 09:16:22;;;;;;;4.40;1.03;;;;;;;2.66;61.87;100024.36;1757797;79;21734;-55
2021/11/23 09:18:49;;;;;;;4.57;1.10;;;;;;;2.69;61.94;100023.45;1755769;79;21647;-54
2021/11/23 09:21:16;;;;;;;4.63;1.10;;;;;;;2.69;61.77;100024.33;1754393;79;21166;-55
2021/11/23 09:23:42;;;;;;;5.80;1.30;;;;;;;2.68;61.80;100024.34;1755933;79;21532;-55
2021/11/23 09:26:09;;;;;;;3.43;1.10;;;;;;;2.67;61.83;100020.81;1759686;79;21116;-55
2021/11/23 09:28:37;;;;;;;3.80;1.10;;;;;;;2.67;61.82;100016.82;1756521;79;21102;-55
2021/11/23 09:31:04;;;;;;;3.70;0.90;;;;;;;2.68;61.91;100013.72;1761717;79;20955;-55
2021/11/23 09:33:31;;;;;;;2.63;0.90;;;;;;;2.68;61.98;100022.57;1759228;79;21078;-55
2021/11/23 09:35:58;;;;;;;4.27;1.10;;;;;;;2.69;62.05;100015.48;1758169;79;21133;-55
2021/11/23 09:38:25;;;;;;;1.80;0.80;;;;;;;2.69;62.07;100017.69;1758045;79;21087;-55
2021/11/23 09:40:52;;;;;;;1.63;0.80;;;;;;;2.67;62.06;100010.17;1755877;79;21386;-55
2021/11/23 09:43:18;;;;;;;1.20;0.77;;;;;;;2.64;62.15;100011.08;1754677;79;21095;-55
2021/11/23 09:45:45;;;;;;;1.13;0.60;;;;;;;2.65;62.27;100014.17;1755269;79;22344;-55
2021/11/23 09:48:12;;;;;;;1.47;0.80;;;;;;;2.67;62.29;100015.49;1754333;79;21105;-55
2021/11/23 09:50:42;;;;;;;3.30;1.20;;;;;;;2.68;62.34;100015.93;1761679;79;22654;-55
2021/11/23 09:53:10;;;;;;;2.20;0.80;;;;;;;2.66;62.29;100010.63;1757972;80;20963;-55
2021/11/23 09:55:38;;;;;;;1.33;0.70;;;;;;;2.68;62.21;100005.30;1756898;79;20978;-55
2021/11/23 09:58:04;;;;;;;5.23;0.80;;;;;;;2.69;62.30;100006.17;1764645;80;20970;-55
2021/11/23 10:00:37;;;;;;;1.77;0.80;;;;;;;2.72;62.44;100000.83;1758383;79;20931;-55
2021/11/23 10:03:15;;;;;;;;;;;;;;;2.76;62.40;99997.22;1759742;79;21171;-55
2021/11/23 10:05:42;;;;;;;1.17;0.60;;;;;;;2.81;62.37;99993.59;1761317;79;20104;-55
2021/11/23 10:08:15;;;;;;;5.97;0.87;;;;;;;2.85;62.44;99988.68;1756904;79;20959;-55
2021/11/23 10:10:53;;;;;;;1.00;0.70;;;;;;;2.90;62.28;99990.81;1758558;79;20896;-55
2021/11/23 10:13:21;;;;;;;1.93;0.73;;;;;;;2.94;62.16;99987.67;1764353;79;20936;-55
2021/11/23 10:15:50;;;;;;;1.63;0.70;;;;;;;2.96;62.04;99981.45;1759229;79;20986;-55
2021/11/23 10:18:23;;;;;;;3.90;0.80;;;;;;;2.99;62.03;99980.50;1763909;79;20888;-55
2021/11/23 10:20:52;;;;;;;1.73;0.60;;;;;;;3.04;62.22;99975.56;1761671;79;20916;-55
2021/11/23 10:23:32;;;;;;;2.73;0.70;;;;;;;3.12;62.23;99968.80;1760917;79;20944;-55
2021/11/23 10:26:15;;;;;;;1.30;0.53;;;;;;;3.20;61.96;99966.02;1758018;79;21549;-55
2021/11/23 10:28:54;;;;;;;1.17;0.60;;;;;;;3.29;61.87;99965.89;1756728;79;21090;-55
2021/11/23 10:31:21;;;;;;;1.70;0.70;;;;;;;3.32;61.47;99961.83;1757236;79;20998;-55
2021/11/23 10:34:03;;;;;;;1.13;0.60;;;;;;;3.34;61.28;99959.58;1761223;79;20908;-55
2021/11/23 10:36:41;;;;;;;1.10;0.53;;;;;;;3.36;61.00;99956.91;1763726;79;21358;-55
2021/11/23 10:39:23;;;;;;;1.60;0.70;;;;;;;3.35;60.90;99955.14;1756728;79;21030;-55
2021/11/23 10:41:56;;;;;;;0.77;0.47;;;;;;;3.35;60.91;99948.48;1734507;80;21303;-55
2021/11/23 10:44:32;;;;;;;0.83;0.50;;;;;;;3.42;60.77;99942.16;1758973;79;21949;-55
2021/11/23 10:47:00;;;;;;;1.13;0.50;;;;;;;3.49;60.69;99946.47;1766583;79;20904;-55
2021/11/23 10:49:43;;;;;;;2.07;0.60;;;;;;;3.53;60.58;99934.89;1768523;78;21346;-54
2021/11/23 10:52:08;;;;;;;1.20;0.57;;;;;;;3.59;60.30;99941.42;1767814;78;21361;-55
2021/11/23 10:54:35;;;;;;;1.10;0.57;;;;;;;3.58;60.11;99937.00;1702624;80;22311;-55
2021/11/23 10:57:09;;;;;;;1.10;0.60;;;;;;;3.58;59.96;99934.34;1768786;80;21158;-55
2021/11/23 11:00:40;;;;;;;2.03;0.70;;;;;;;3.61;60.09;99923.66;1856719;75;26463;-54
2021/11/23 11:03:07;;;;;;;1.10;0.60;;;;;;;3.59;60.17;99936.10;1823332;76;20999;-55
2021/11/23 11:05:38;;;;;;;2.07;0.50;;;;;;;3.59;60.11;99925.91;1825255;76;21723;-55
2021/11/23 11:08:05;;;;;;;1.10;0.60;;;;;;;3.59;60.23;99932.11;1823120;76;21027;-55
2021/11/23 11:10:32;;;;;;;1.13;0.60;;;;;;;3.60;60.06;99922.34;1820765;76;21255;-55
2021/11/23 11:13:00;;;;;;;1.20;0.70;;;;;;;3.61;60.01;99920.99;1823979;76;20957;-56
2021/11/23 11:15:34;;;;;;;1.80;0.60;;;;;;;3.63;60.00;99911.20;1793210;76;22218;-55
2021/11/23 11:18:02;;;;;;;1.60;0.60;;;;;;;3.68;60.01;99906.66;1824724;76;21137;-55
2021/11/23 11:20:36;;;;;;;4.70;0.80;;;;;;;3.73;60.08;99904.81;1827070;77;21016;-55
2021/11/23 11:23:06;;;;;;;2.60;0.60;;;;;;;3.78;60.19;99898.06;1822047;76;20919;-55
2021/11/23 11:28:46;;;;;;;1.17;0.50;;;;;;;3.85;60.00;99885.50;1821543;76;21041;-55
2021/11/23 11:31:41;;;;;;;0.77;0.50;;;;;;;3.88;59.79;99890.78;1819267;76;21077;-55
2021/11/23 11:34:23;;;;;;;;;;;;;;;3.88;59.57;99886.79;1823691;76;21123;-55
2021/11/23 11:37:12;;;;;;;3.50;0.60;;;;;;;3.87;59.51;99897.01;1816923;76;20254;-55
2021/11/23 11:39:48;;;;;;;0.70;0.40;;;;;;;3.84;59.47;99891.73;1814172;76;21112;-55
2021/11/23 11:42:27;;;;;;;1.33;0.60;;;;;;;3.80;59.35;99891.81;1835839;77;20890;-55
2021/11/23 11:44:54;;;;;;;1.37;0.70;;;;;;;3.79;59.33;99887.39;1820580;77;21082;-55
2021/11/23 11:47:35;;;;;;;0.70;0.50;;;;;;;3.78;59.35;99885.63;1818403;77;21041;-55
2021/11/23 11:50:08;;;;;;;0.73;0.50;;;;;;;3.79;59.48;99877.19;1818266;76;21649;-55